Time;durP1;ratioP1;P1;durP2;ratioP2;P2;SDS_P1;SDS_P2;PMS_P1;PMS_P2;Temp;Humidity;BMP_temperature;BMP_pressure;BME280_temperature;BME280_humidity;BME280_pressure;Samples;Min_cycle;Max_cycle;Signal;HPM_P1;HPM_P2
2022/03/29 00:01:33;;;;;;;42.13;27.80;;;;;;;;;;5061868;28;20431;-83
2022/03/29 00:04:01;;;;;;;39.75;27.30;;;;;;;;;;5058486;28;20425;-83
2022/03/29 00:06:27;;;;;;;38.88;26.52;;;;;;;;;;5061539;28;20431;-87
2022/03/29 00:08:53;;;;;;;39.40;26.57;;;;;;;;;;5055264;28;20428;-83
2022/03/29 00:11:20;;;;;;;39.53;26.25;;;;;;;;;;5060307;28;20477;-84
2022/03/29 00:13:46;;;;;;;41.33;27.00;;;;;;;;;;5064299;28;20413;-83
2022/03/29 00:16:12;;;;;;;40.83;27.13;;;;;;;;;;5058185;28;20435;-84
2022/03/29 00:18:38;;;;;;;37.00;25.48;;;;;;;;;;5060766;28;20412;-83
2022/03/29 00:21:06;;;;;;;38.20;24.58;;;;;;;;;;5059056;28;20433;-83
2022/03/29 00:23:33;;;;;;;41.58;26.88;;;;;;;;;;5059130;28;20423;-84
2022/03/29 00:26:00;;;;;;;39.10;26.90;;;;;;;;;;5059796;28;20436;-84
2022/03/29 00:28:26;;;;;;;41.85;26.95;;;;;;;;;;5059878;28;20471;-83
2022/03/29 00:30:52;;;;;;;36.35;26.98;;;;;;;;;;5059606;28;20477;-84
2022/03/29 00:33:18;;;;;;;37.50;24.77;;;;;;;;;;5058868;28;20438;-85
2022/03/29 00:35:44;;;;;;;34.10;23.17;;;;;;;;;;5062554;28;20419;-88
2022/03/29 00:38:12;;;;;;;37.58;25.55;;;;;;;;;;5058848;28;20417;-85
2022/03/29 00:40:38;;;;;;;36.20;25.45;;;;;;;;;;5060353;28;20517;-83
2022/03/29 00:43:05;;;;;;;42.25;25.08;;;;;;;;;;5059598;28;20463;-83
2022/03/29 00:45:31;;;;;;;37.92;25.08;;;;;;;;;;5064219;28;20842;-84
2022/03/29 00:47:58;;;;;;;33.33;23.77;;;;;;;;;;5049351;28;20473;-88
2022/03/29 00:50:24;;;;;;;37.55;25.65;;;;;;;;;;5062427;28;20429;-83
2022/03/29 00:52:50;;;;;;;34.10;24.63;;;;;;;;;;5060810;28;20416;-83
2022/03/29 00:55:18;;;;;;;40.70;25.73;;;;;;;;;;5059707;28;20483;-82
2022/03/29 00:57:46;;;;;;;33.50;23.92;;;;;;;;;;5060051;28;20425;-84
2022/03/29 01:00:13;;;;;;;34.65;23.88;;;;;;;;;;5056702;28;20516;-84
2022/03/29 01:02:39;;;;;;;37.50;25.13;;;;;;;;;;5057443;28;20529;-84
2022/03/29 01:05:05;;;;;;;40.45;26.50;;;;;;;;;;5060846;28;20432;-82
2022/03/29 01:07:32;;;;;;;36.72;25.55;;;;;;;;;;5055759;28;20423;-83
2022/03/29 01:09:58;;;;;;;40.50;26.00;;;;;;;;;;5056437;28;20585;-84
2022/03/29 01:12:28;;;;;;;39.80;26.33;;;;;;;;;;5060011;28;21074;-86
2022/03/29 01:14:54;;;;;;;36.47;25.95;;;;;;;;;;5058211;28;20415;-84
2022/03/29 01:20:06;;;;;;;46.47;27.60;;;;;;;;;;5057643;28;20432;-84
2022/03/29 01:22:34;;;;;;;40.23;26.60;;;;;;;;;;5055557;28;20476;-83
2022/03/29 01:25:01;;;;;;;39.90;26.60;;;;;;;;;;5055623;28;20934;-84
2022/03/29 01:27:31;;;;;;;37.83;26.67;;;;;;;;;;5056562;28;20438;-83
2022/03/29 01:29:59;;;;;;;41.53;28.13;;;;;;;;;;5058049;28;20431;-83
2022/03/29 01:32:28;;;;;;;42.20;27.70;;;;;;;;;;5059845;28;20440;-83
2022/03/29 01:34:55;;;;;;;41.67;26.80;;;;;;;;;;5057769;28;20438;-83
2022/03/29 01:37:21;;;;;;;41.25;27.42;;;;;;;;;;5063552;28;20437;-83
2022/03/29 01:39:49;;;;;;;41.13;27.70;;;;;;;;;;5052806;28;20481;-84
2022/03/29 01:42:15;;;;;;;42.42;27.17;;;;;;;;;;5059553;28;20435;-83
2022/03/29 01:44:41;;;;;;;42.90;28.38;;;;;;;;;;5056502;28;20471;-83
2022/03/29 01:47:08;;;;;;;42.72;26.85;;;;;;;;;;5059283;28;20491;-83
2022/03/29 01:49:34;;;;;;;36.42;25.80;;;;;;;;;;5060092;28;20477;-83
2022/03/29 01:52:01;;;;;;;39.20;26.20;;;;;;;;;;5058653;28;20431;-83
2022/03/29 01:54:27;;;;;;;37.33;26.40;;;;;;;;;;5060270;28;20424;-84
2022/03/29 01:56:55;;;;;;;38.33;26.67;;;;;;;;;;5057541;28;20436;-83
2022/03/29 01:59:21;;;;;;;40.42;27.77;;;;;;;;;;5064547;28;21005;-84
2022/03/29 02:01:48;;;;;;;42.92;27.33;;;;;;;;;;5061239;28;20436;-83
2022/03/29 02:04:16;;;;;;;44.50;26.50;;;;;;;;;;5064652;28;20428;-83
2022/03/29 02:06:42;;;;;;;40.10;26.02;;;;;;;;;;5058414;28;20425;-84
2022/03/29 02:09:10;;;;;;;40.72;26.50;;;;;;;;;;5058516;28;20946;-85
2022/03/29 02:11:37;;;;;;;43.53;26.92;;;;;;;;;;5062762;28;20514;-83
2022/03/29 02:14:04;;;;;;;42.17;27.42;;;;;;;;;;5066023;28;20420;-80
2022/03/29 02:16:31;;;;;;;40.47;27.50;;;;;;;;;;5063558;28;20437;-83
2022/03/29 02:18:57;;;;;;;42.78;27.13;;;;;;;;;;5062098;28;20481;-82
2022/03/29 02:21:23;;;;;;;40.60;26.60;;;;;;;;;;5062104;28;20437;-83
2022/03/29 02:23:49;;;;;;;42.10;27.70;;;;;;;;;;5061003;28;20424;-84
2022/03/29 02:26:15;;;;;;;39.08;26.55;;;;;;;;;;5063514;28;20902;-83
2022/03/29 02:28:42;;;;;;;43.65;27.77;;;;;;;;;;5058118;28;20412;-83
2022/03/29 02:31:10;;;;;;;43.47;27.90;;;;;;;;;;5063725;28;20656;-84
2022/03/29 02:33:36;;;;;;;41.20;27.33;;;;;;;;;;5061626;28;20424;-83
2022/03/29 02:36:03;;;;;;;45.60;28.83;;;;;;;;;;5057464;28;20433;-83
2022/03/29 02:38:29;;;;;;;41.75;26.65;;;;;;;;;;5065375;28;20437;-83
2022/03/29 02:40:58;;;;;;;49.30;28.67;;;;;;;;;;5059914;28;20866;-86
2022/03/29 02:43:25;;;;;;;41.70;28.60;;;;;;;;;;5064064;28;20415;-83
2022/03/29 02:45:51;;;;;;;45.83;28.02;;;;;;;;;;5058870;28;20508;-84
2022/03/29 02:48:18;;;;;;;42.53;27.20;;;;;;;;;;5061741;28;20420;-83
2022/03/29 02:50:45;;;;;;;39.38;27.30;;;;;;;;;;5062621;28;20857;-83
2022/03/29 02:53:11;;;;;;;40.22;27.77;;;;;;;;;;5059388;28;20537;-83
2022/03/29 02:55:38;;;;;;;46.95;28.90;;;;;;;;;;5060477;28;20500;-86
2022/03/29 02:58:04;;;;;;;45.63;28.85;;;;;;;;;;5060279;28;20455;-85
2022/03/29 03:00:31;;;;;;;41.38;27.08;;;;;;;;;;5061109;28;20521;-83
2022/03/29 03:02:57;;;;;;;44.95;28.45;;;;;;;;;;5059820;28;20414;-83
2022/03/29 03:05:25;;;;;;;42.28;28.45;;;;;;;;;;5061742;28;20516;-83
2022/03/29 03:07:51;;;;;;;45.15;28.00;;;;;;;;;;5059945;28;20414;-83
2022/03/29 03:10:18;;;;;;;42.25;26.63;;;;;;;;;;5053992;28;20487;-83
2022/03/29 03:12:45;;;;;;;41.17;27.80;;;;;;;;;;5061928;28;20526;-82
2022/03/29 03:15:13;;;;;;;45.30;28.20;;;;;;;;;;5058460;28;20437;-84
2022/03/29 03:17:39;;;;;;;41.80;28.55;;;;;;;;;;5062502;28;20458;-83
2022/03/29 03:20:06;;;;;;;42.35;28.80;;;;;;;;;;5056756;28;20873;-83
2022/03/29 03:22:35;;;;;;;41.40;28.23;;;;;;;;;;5059856;28;20441;-86
2022/03/29 03:25:02;;;;;;;44.92;28.67;;;;;;;;;;5057678;28;20433;-86
2022/03/29 03:27:29;;;;;;;45.22;29.20;;;;;;;;;;5059527;28;20450;-85
2022/03/29 03:29:55;;;;;;;36.47;26.95;;;;;;;;;;5059308;28;20441;-83
2022/03/29 03:32:22;;;;;;;42.10;28.65;;;;;;;;;;5060711;28;20489;-83
2022/03/29 03:34:48;;;;;;;41.53;26.80;;;;;;;;;;5059081;28;20433;-83
2022/03/29 03:37:14;;;;;;;42.97;28.40;;;;;;;;;;5058706;28;20429;-84
2022/03/29 03:39:42;;;;;;;44.13;27.58;;;;;;;;;;5060386;28;20489;-83
2022/03/29 03:42:09;;;;;;;41.92;27.77;;;;;;;;;;5060420;28;20432;-83
2022/03/29 03:44:36;;;;;;;44.25;28.63;;;;;;;;;;5060495;28;20412;-83
2022/03/29 03:49:30;;;;;;;42.53;28.73;;;;;;;;;;5033754;28;20413;-81
2022/03/29 03:51:56;;;;;;;44.60;29.40;;;;;;;;;;5038055;28;20491;-80
2022/03/29 03:54:22;;;;;;;41.75;27.20;;;;;;;;;;5038783;28;20427;-81
2022/03/29 03:56:50;;;;;;;41.53;27.88;;;;;;;;;;5036304;28;20817;-81
2022/03/29 03:59:16;;;;;;;45.55;29.17;;;;;;;;;;5031505;28;20950;-81
2022/03/29 04:01:42;;;;;;;44.40;28.40;;;;;;;;;;5037986;28;20431;-81
2022/03/29 04:04:08;;;;;;;45.58;28.67;;;;;;;;;;5037812;28;20413;-81
2022/03/29 04:06:35;;;;;;;48.78;29.10;;;;;;;;;;5037917;28;20434;-81
2022/03/29 04:09:01;;;;;;;42.75;28.83;;;;;;;;;;5037106;28;20510;-80
2022/03/29 04:11:27;;;;;;;46.80;29.60;;;;;;;;;;5039431;28;20482;-81
2022/03/29 04:13:56;;;;;;;43.88;27.60;;;;;;;;;;5038919;28;20484;-80
2022/03/29 04:16:22;;;;;;;46.72;30.13;;;;;;;;;;5038167;28;21251;-80
2022/03/29 04:18:48;;;;;;;45.40;28.88;;;;;;;;;;5034877;28;20451;-80
2022/03/29 04:21:14;;;;;;;44.23;29.00;;;;;;;;;;5039272;28;20438;-80
2022/03/29 04:23:41;;;;;;;43.17;30.02;;;;;;;;;;5038829;28;20931;-81
2022/03/29 04:26:07;;;;;;;44.73;28.80;;;;;;;;;;5035439;28;20426;-81
2022/03/29 04:28:33;;;;;;;45.05;29.10;;;;;;;;;;5036598;28;20785;-81
2022/03/29 04:31:01;;;;;;;45.00;29.80;;;;;;;;;;5032063;28;20453;-82
2022/03/29 04:33:27;;;;;;;44.50;28.05;;;;;;;;;;5033238;28;20475;-80
2022/03/29 04:35:54;;;;;;;43.58;29.35;;;;;;;;;;5035640;28;20469;-81
2022/03/29 04:38:20;;;;;;;43.95;30.00;;;;;;;;;;5037273;28;20423;-81
2022/03/29 04:40:47;;;;;;;41.63;28.65;;;;;;;;;;5041361;28;20471;-81
2022/03/29 04:43:13;;;;;;;48.65;30.17;;;;;;;;;;5039625;28;20423;-81
2022/03/29 04:45:39;;;;;;;48.10;30.85;;;;;;;;;;5037616;28;20512;-80
2022/03/29 04:48:07;;;;;;;40.35;27.30;;;;;;;;;;5037626;28;20419;-81
2022/03/29 04:50:34;;;;;;;38.25;28.40;;;;;;;;;;5037087;28;21416;-81
2022/03/29 04:53:00;;;;;;;45.78;29.55;;;;;;;;;;5038243;28;20416;-81
2022/03/29 04:55:26;;;;;;;44.33;28.80;;;;;;;;;;5039303;28;20422;-81
2022/03/29 04:57:52;;;;;;;43.92;28.73;;;;;;;;;;5038716;28;20663;-80
2022/03/29 05:00:20;;;;;;;42.00;29.35;;;;;;;;;;5038745;28;20423;-81
2022/03/29 05:02:47;;;;;;;45.83;28.58;;;;;;;;;;5034595;28;20523;-81
2022/03/29 05:05:15;;;;;;;49.85;30.17;;;;;;;;;;5040394;28;20959;-80
2022/03/29 05:07:41;;;;;;;45.58;29.63;;;;;;;;;;5039193;28;20437;-81
2022/03/29 05:10:08;;;;;;;49.50;29.33;;;;;;;;;;5038280;28;20433;-81
2022/03/29 05:12:38;;;;;;;45.00;28.10;;;;;;;;;;5037547;28;20512;-81
2022/03/29 05:15:05;;;;;;;47.05;28.70;;;;;;;;;;5038101;28;20426;-81
2022/03/29 05:17:33;;;;;;;41.85;27.42;;;;;;;;;;5036996;28;20435;-80
2022/03/29 05:19:59;;;;;;;47.97;28.47;;;;;;;;;;5039847;28;20419;-80
2022/03/29 05:22:27;;;;;;;42.47;28.17;;;;;;;;;;5039924;28;20433;-81
2022/03/29 05:24:53;;;;;;;45.80;29.38;;;;;;;;;;5036251;28;20426;-80
2022/03/29 05:27:19;;;;;;;46.70;30.15;;;;;;;;;;5035971;28;20431;-80
2022/03/29 05:29:46;;;;;;;46.07;28.63;;;;;;;;;;5034281;28;20457;-80
2022/03/29 05:32:14;;;;;;;43.70;28.08;;;;;;;;;;5035746;28;20990;-80
2022/03/29 05:34:40;;;;;;;43.03;28.30;;;;;;;;;;5042081;28;20505;-80
2022/03/29 05:37:06;;;;;;;41.15;27.30;;;;;;;;;;5041906;28;20434;-79
2022/03/29 05:39:34;;;;;;;45.00;29.17;;;;;;;;;;5037093;28;20429;-80
2022/03/29 05:42:00;;;;;;;42.78;29.33;;;;;;;;;;5034051;28;20442;-81
2022/03/29 05:44:26;;;;;;;43.70;28.83;;;;;;;;;;5037047;28;20423;-81
2022/03/29 05:49:37;;;;;;;49.97;30.73;;;;;;;;;;5039528;28;20485;-81
2022/03/29 05:52:03;;;;;;;47.73;28.87;;;;;;;;;;5036877;28;20524;-80
2022/03/29 05:54:30;;;;;;;45.85;29.00;;;;;;;;;;5044920;28;20838;-81
2022/03/29 05:56:57;;;;;;;48.47;29.25;;;;;;;;;;5043600;28;20522;-81
2022/03/29 05:59:23;;;;;;;51.53;28.83;;;;;;;;;;5043927;28;20423;-81
2022/03/29 06:01:50;;;;;;;45.08;27.13;;;;;;;;;;5044400;28;20469;-81
2022/03/29 06:04:17;;;;;;;43.60;28.37;;;;;;;;;;5045138;28;20423;-81
2022/03/29 06:06:45;;;;;;;45.90;28.52;;;;;;;;;;5044080;28;20444;-81
2022/03/29 06:09:11;;;;;;;47.20;28.30;;;;;;;;;;5042116;28;20412;-81
2022/03/29 06:11:37;;;;;;;45.07;28.87;;;;;;;;;;5045600;28;20419;-81
2022/03/29 06:14:05;;;;;;;47.22;28.58;;;;;;;;;;5042187;28;20513;-80
2022/03/29 06:16:31;;;;;;;45.00;26.92;;;;;;;;;;5037009;28;20932;-81
2022/03/29 06:18:57;;;;;;;46.88;27.75;;;;;;;;;;5040454;28;20424;-81
2022/03/29 06:21:24;;;;;;;46.85;28.80;;;;;;;;;;5041948;28;20911;-80
2022/03/29 06:23:50;;;;;;;45.17;27.92;;;;;;;;;;5041005;28;20427;-81
2022/03/29 06:26:17;;;;;;;41.17;27.08;;;;;;;;;;5039747;28;20442;-80
2022/03/29 06:28:43;;;;;;;42.40;26.58;;;;;;;;;;5040141;28;20514;-80
2022/03/29 06:31:11;;;;;;;45.85;27.63;;;;;;;;;;5040105;28;20783;-81
2022/03/29 06:33:37;;;;;;;42.80;25.60;;;;;;;;;;5039102;28;20417;-81
2022/03/29 06:36:03;;;;;;;45.72;26.85;;;;;;;;;;5042675;28;20417;-81
2022/03/29 06:38:31;;;;;;;45.00;25.73;;;;;;;;;;5039748;28;20937;-81
2022/03/29 06:40:59;;;;;;;40.60;25.05;;;;;;;;;;5041616;28;20488;-80
2022/03/29 06:43:25;;;;;;;38.77;24.93;;;;;;;;;;5040951;28;20506;-81
2022/03/29 06:45:51;;;;;;;43.30;25.40;;;;;;;;;;5039445;28;20575;-80
2022/03/29 06:48:19;;;;;;;41.10;23.67;;;;;;;;;;5039786;28;20501;-81
2022/03/29 06:50:45;;;;;;;44.45;24.17;;;;;;;;;;5038283;28;20972;-79
2022/03/29 06:53:11;;;;;;;37.08;23.88;;;;;;;;;;5040504;28;20497;-80
2022/03/29 06:55:38;;;;;;;39.42;23.50;;;;;;;;;;5041567;28;20461;-80
2022/03/29 06:58:04;;;;;;;42.38;23.33;;;;;;;;;;5038967;28;20453;-78
2022/03/29 07:00:30;;;;;;;35.33;22.63;;;;;;;;;;5041449;28;20415;-81
2022/03/29 07:02:56;;;;;;;38.65;24.23;;;;;;;;;;5039742;28;20423;-81
2022/03/29 07:05:24;;;;;;;41.03;22.30;;;;;;;;;;5042003;28;20475;-81
2022/03/29 07:07:51;;;;;;;34.88;20.63;;;;;;;;;;5038057;28;20405;-81
2022/03/29 07:13:02;;;;;;;33.50;19.05;;;;;;;;;;5039519;28;20458;-80
2022/03/29 07:15:28;;;;;;;31.67;18.20;;;;;;;;;;5041539;28;20435;-81
2022/03/29 07:17:55;;;;;;;36.40;18.85;;;;;;;;;;5039751;28;20891;-81
2022/03/29 07:20:22;;;;;;;32.63;17.60;;;;;;;;;;5040274;28;20425;-81
2022/03/29 07:22:50;;;;;;;27.67;15.25;;;;;;;;;;5041722;28;20427;-81
2022/03/29 07:25:18;;;;;;;33.22;16.38;;;;;;;;;;5037502;28;21195;-80
2022/03/29 07:27:44;;;;;;;31.42;16.30;;;;;;;;;;5038492;28;20443;-79
2022/03/29 07:30:11;;;;;;;27.40;14.88;;;;;;;;;;5037910;28;20447;-80
2022/03/29 07:32:46;;;;;;;32.28;13.27;;;;;;;;;;5038948;28;20505;-81
2022/03/29 07:35:14;;;;;;;25.65;13.25;;;;;;;;;;5041731;28;20423;-81
2022/03/29 07:37:40;;;;;;;25.52;12.27;;;;;;;;;;5041178;28;20418;-81
2022/03/29 07:40:09;;;;;;;24.83;12.65;;;;;;;;;;5037448;28;20426;-81
2022/03/29 07:42:36;;;;;;;27.33;12.10;;;;;;;;;;5039175;28;20504;-80
2022/03/29 07:45:03;;;;;;;30.20;13.07;;;;;;;;;;5041531;28;20504;-81
2022/03/29 07:47:29;;;;;;;28.67;13.90;;;;;;;;;;5040791;28;20893;-80
2022/03/29 07:49:56;;;;;;;29.33;12.65;;;;;;;;;;5039732;28;20429;-81
2022/03/29 07:52:22;;;;;;;26.73;11.57;;;;;;;;;;5039402;28;20964;-82
2022/03/29 07:54:48;;;;;;;25.15;11.38;;;;;;;;;;5040203;28;20483;-81
2022/03/29 07:57:16;;;;;;;22.38;11.77;;;;;;;;;;5039547;28;20450;-81
2022/03/29 07:59:42;;;;;;;26.63;11.93;;;;;;;;;;5037223;28;20422;-81
2022/03/29 08:02:09;;;;;;;21.63;10.00;;;;;;;;;;5039614;28;20441;-81
2022/03/29 08:04:35;;;;;;;24.50;10.75;;;;;;;;;;5039963;28;20415;-82
2022/03/29 08:07:01;;;;;;;22.27;9.93;;;;;;;;;;5039453;28;20430;-81
2022/03/29 08:09:27;;;;;;;25.15;9.85;;;;;;;;;;5039438;28;20497;-81
2022/03/29 08:11:55;;;;;;;24.40;9.07;;;;;;;;;;5039816;28;20420;-81
2022/03/29 08:14:22;;;;;;;19.80;9.15;;;;;;;;;;5037787;28;20463;-81
2022/03/29 08:16:49;;;;;;;21.92;10.52;;;;;;;;;;5034352;28;20441;-81
2022/03/29 08:19:15;;;;;;;25.60;9.45;;;;;;;;;;5040102;28;20511;-81
2022/03/29 08:21:50;;;;;;;21.20;8.93;;;;;;;;;;5043260;28;20483;-84
2022/03/29 08:24:17;;;;;;;24.45;9.70;;;;;;;;;;5040443;28;20422;-81
2022/03/29 08:26:43;;;;;;;18.75;8.15;;;;;;;;;;5040938;28;20428;-81
2022/03/29 08:29:11;;;;;;;23.17;8.77;;;;;;;;;;5038991;28;20448;-80
2022/03/29 08:31:40;;;;;;;17.75;7.60;;;;;;;;;;5040756;28;20429;-80
2022/03/29 08:34:07;;;;;;;22.40;8.30;;;;;;;;;;5035088;28;20931;-81
2022/03/29 08:36:34;;;;;;;23.55;8.35;;;;;;;;;;5040745;28;20414;-81
2022/03/29 08:39:01;;;;;;;26.50;8.63;;;;;;;;;;5039898;28;20419;-81
2022/03/29 08:41:29;;;;;;;22.75;8.60;;;;;;;;;;5040557;28;20427;-81
2022/03/29 08:43:55;;;;;;;24.70;8.43;;;;;;;;;;5038384;28;20935;-81
2022/03/29 08:46:22;;;;;;;16.15;7.47;;;;;;;;;;5041160;28;20974;-81
2022/03/29 08:48:51;;;;;;;24.42;9.18;;;;;;;;;;5036788;28;20797;-81
2022/03/29 08:51:18;;;;;;;20.63;8.20;;;;;;;;;;5034507;28;20433;-82
2022/03/29 08:53:48;;;;;;;25.87;9.00;;;;;;;;;;5039592;28;20497;-79
2022/03/29 08:56:14;;;;;;;23.42;9.10;;;;;;;;;;5039256;28;20422;-81
2022/03/29 08:58:40;;;;;;;21.17;8.43;;;;;;;;;;5040036;28;20476;-81
2022/03/29 09:01:07;;;;;;;23.17;9.57;;;;;;;;;;5040661;28;20417;-81
2022/03/29 09:03:33;;;;;;;19.80;8.23;;;;;;;;;;5038523;28;20488;-81
2022/03/29 09:06:10;;;;;;;21.80;7.40;;;;;;;;;;5038477;28;20428;-81
2022/03/29 09:08:43;;;;;;;22.30;7.95;;;;;;;;;;5040605;28;20413;-82
2022/03/29 09:11:09;;;;;;;19.08;7.60;;;;;;;;;;5045069;28;20453;-81
2022/03/29 09:13:36;;;;;;;22.07;7.63;;;;;;;;;;5044141;28;20423;-81
2022/03/29 09:16:02;;;;;;;28.25;8.13;;;;;;;;;;5044494;28;20908;-81
2022/03/29 09:18:30;;;;;;;23.00;6.75;;;;;;;;;;5041834;28;20434;-80
2022/03/29 09:21:07;;;;;;;20.98;6.90;;;;;;;;;;5045667;28;20421;-81
2022/03/29 09:23:35;;;;;;;19.73;7.80;;;;;;;;;;5041958;28;20427;-82
2022/03/29 09:26:02;;;;;;;24.65;7.85;;;;;;;;;;5045428;28;20504;-81
2022/03/29 09:28:33;;;;;;;20.60;7.20;;;;;;;;;;5043185;28;20425;-80
2022/03/29 09:30:59;;;;;;;21.48;7.70;;;;;;;;;;5043055;28;20455;-80
2022/03/29 09:33:29;;;;;;;24.77;8.20;;;;;;;;;;5043030;28;20473;-81
2022/03/29 09:35:58;;;;;;;21.73;7.43;;;;;;;;;;5042679;28;20433;-80
2022/03/29 09:38:26;;;;;;;20.35;6.85;;;;;;;;;;5039970;28;20431;-80
2022/03/29 09:40:55;;;;;;;19.67;6.32;;;;;;;;;;5043489;28;21307;-83
2022/03/29 09:43:22;;;;;;;21.20;7.20;;;;;;;;;;5044767;28;20423;-82
2022/03/29 09:45:48;;;;;;;25.45;7.28;;;;;;;;;;5040858;28;20453;-82
2022/03/29 09:48:25;;;;;;;22.85;6.53;;;;;;;;;;5043134;28;20423;-82
2022/03/29 09:50:53;;;;;;;22.85;7.72;;;;;;;;;;5043731;28;20435;-82
2022/03/29 09:53:39;;;;;;;22.48;8.20;;;;;;;;;;5045026;28;20953;-82
2022/03/29 09:56:07;;;;;;;24.02;8.30;;;;;;;;;;5067780;23;20957;-80
2022/03/29 09:58:33;;;;;;;19.67;7.80;;;;;;;;;;5067079;28;20412;-80
2022/03/29 10:01:00;;;;;;;23.17;8.27;;;;;;;;;;5066113;28;20451;-80
2022/03/29 10:03:27;;;;;;;24.05;8.02;;;;;;;;;;5067350;28;20440;-79
2022/03/29 10:06:01;;;;;;;19.13;9.40;;;;;;;;;;5069288;28;20470;-80
2022/03/29 10:11:13;;;;;;;22.50;8.47;;;;;;;;;;5065732;28;20417;-79
2022/03/29 10:13:40;;;;;;;21.55;9.75;;;;;;;;;;5066704;28;20423;-80
2022/03/29 10:16:10;;;;;;;24.40;9.85;;;;;;;;;;5066390;28;20793;-80
2022/03/29 10:18:36;;;;;;;23.85;9.27;;;;;;;;;;5064515;28;20412;-79
2022/03/29 10:21:04;;;;;;;24.58;8.93;;;;;;;;;;5065722;28;20404;-79
2022/03/29 10:23:31;;;;;;;25.27;10.80;;;;;;;;;;5065162;28;20769;-79
2022/03/29 10:25:58;;;;;;;26.58;9.20;;;;;;;;;;5060775;28;20428;-80
2022/03/29 10:28:27;;;;;;;21.60;9.40;;;;;;;;;;5063137;28;20500;-80
2022/03/29 10:30:53;;;;;;;18.27;8.63;;;;;;;;;;5065034;28;20490;-79
2022/03/29 10:33:22;;;;;;;21.90;8.98;;;;;;;;;;5063913;28;20437;-79
2022/03/29 10:36:01;;;;;;;25.83;9.25;;;;;;;;;;5067966;28;20419;-79
2022/03/29 10:38:42;;;;;;;20.55;8.52;;;;;;;;;;5065251;28;20453;-79
2022/03/29 10:41:33;;;;;;;18.38;8.82;;;;;;;;;;5064358;28;20426;-79
2022/03/29 10:44:04;;;;;;;18.92;9.45;;;;;;;;;;5064513;28;20420;-79
2022/03/29 10:46:39;;;;;;;20.20;9.40;;;;;;;;;;5062790;28;20433;-80
2022/03/29 10:49:22;;;;;;;20.57;9.20;;;;;;;;;;5062794;28;20850;-80
2022/03/29 10:51:48;;;;;;;21.02;9.25;;;;;;;;;;5065847;28;20492;-79
2022/03/29 10:54:25;;;;;;;19.63;9.65;;;;;;;;;;5064615;28;20488;-79
2022/03/29 10:56:58;;;;;;;23.95;9.95;;;;;;;;;;5066311;28;20431;-79
2022/03/29 10:59:26;;;;;;;21.15;9.32;;;;;;;;;;5062959;28;20434;-79
2022/03/29 11:02:09;;;;;;;27.95;8.55;;;;;;;;;;5063688;28;20481;-79
2022/03/29 11:04:35;;;;;;;21.98;8.30;;;;;;;;;;5064832;28;20419;-80
2022/03/29 11:07:12;;;;;;;18.93;8.17;;;;;;;;;;5064855;28;20952;-79
2022/03/29 11:09:40;;;;;;;27.80;8.90;;;;;;;;;;5065569;28;21167;-80
2022/03/29 11:12:06;;;;;;;18.52;8.93;;;;;;;;;;5065045;28;20417;-79
2022/03/29 11:14:39;;;;;;;21.20;9.43;;;;;;;;;;5061072;28;20426;-79
2022/03/29 11:17:29;;;;;;;17.45;7.80;;;;;;;;;;5063153;28;20500;-80
2022/03/29 11:19:59;;;;;;;19.92;8.00;;;;;;;;;;5040105;28;20768;-79
2022/03/29 11:22:25;;;;;;;25.33;7.80;;;;;;;;;;5063958;28;20441;-79
2022/03/29 11:24:52;;;;;;;18.40;8.00;;;;;;;;;;5064278;28;20514;-79
2022/03/29 11:27:22;;;;;;;21.63;9.30;;;;;;;;;;5064024;28;20435;-80
2022/03/29 11:29:49;;;;;;;17.13;7.95;;;;;;;;;;5058399;28;20513;-79
2022/03/29 11:32:17;;;;;;;21.30;10.02;;;;;;;;;;5063829;28;21027;-79
2022/03/29 11:34:44;;;;;;;20.88;9.35;;;;;;;;;;5063911;28;20459;-80
2022/03/29 11:37:25;;;;;;;16.50;8.35;;;;;;;;;;5061025;28;20439;-80
2022/03/29 11:39:52;;;;;;;17.85;9.25;;;;;;;;;;5063198;28;20420;-79
2022/03/29 11:42:18;;;;;;;17.27;9.05;;;;;;;;;;5061109;28;20437;-79
2022/03/29 11:44:47;;;;;;;22.80;9.63;;;;;;;;;;5063802;28;20413;-79
2022/03/29 11:47:14;;;;;;;19.50;8.93;;;;;;;;;;5064772;28;20473;-79
2022/03/29 11:49:41;;;;;;;22.50;9.45;;;;;;;;;;5061686;28;20781;-80
2022/03/29 11:52:11;;;;;;;20.10;9.00;;;;;;;;;;5062389;28;20939;-79
2022/03/29 11:54:40;;;;;;;21.20;8.90;;;;;;;;;;5062350;28;20419;-79
2022/03/29 11:57:14;;;;;;;17.27;8.73;;;;;;;;;;5061797;28;20857;-79
2022/03/29 11:59:40;;;;;;;23.25;10.02;;;;;;;;;;5062184;28;20459;-79
2022/03/29 12:02:06;;;;;;;20.92;9.27;;;;;;;;;;5063411;28;20413;-79
2022/03/29 12:04:34;;;;;;;22.35;8.63;;;;;;;;;;5063384;28;20853;-79
2022/03/29 12:07:00;;;;;;;19.60;9.60;;;;;;;;;;5064622;28;20404;-79
2022/03/29 12:09:27;;;;;;;20.15;9.77;;;;;;;;;;5062575;28;20427;-79
2022/03/29 12:11:54;;;;;;;23.40;9.50;;;;;;;;;;5061775;28;20437;-79
2022/03/29 12:14:21;;;;;;;21.58;9.57;;;;;;;;;;5062150;28;20421;-79
2022/03/29 12:16:49;;;;;;;18.75;10.10;;;;;;;;;;5062701;28;20480;-79
2022/03/29 12:19:16;;;;;;;20.38;10.40;;;;;;;;;;5061492;28;20440;-79
2022/03/29 12:21:44;;;;;;;21.90;10.85;;;;;;;;;;5064094;28;20854;-79
2022/03/29 12:24:11;;;;;;;25.90;10.90;;;;;;;;;;5065500;28;20436;-79
2022/03/29 12:26:39;;;;;;;18.50;9.82;;;;;;;;;;5061934;28;20455;-79
2022/03/29 12:29:07;;;;;;;25.05;11.02;;;;;;;;;;5061870;28;20694;-79
2022/03/29 12:31:35;;;;;;;26.17;11.02;;;;;;;;;;5064318;28;20430;-79
2022/03/29 12:34:01;;;;;;;21.33;10.40;;;;;;;;;;5057053;28;20431;-79
2022/03/29 12:36:28;;;;;;;18.98;9.60;;;;;;;;;;5065453;28;20454;-79
2022/03/29 12:39:00;;;;;;;21.00;10.67;;;;;;;;;;5063581;28;20423;-80
2022/03/29 12:41:33;;;;;;;23.50;10.90;;;;;;;;;;5065472;28;20408;-80
2022/03/29 12:44:00;;;;;;;18.88;11.07;;;;;;;;;;5061964;28;20436;-80
2022/03/29 12:46:27;;;;;;;25.42;12.13;;;;;;;;;;5065717;28;20441;-80
2022/03/29 12:48:54;;;;;;;25.40;12.18;;;;;;;;;;5062672;28;20450;-80
2022/03/29 12:51:25;;;;;;;20.77;10.50;;;;;;;;;;5064771;28;20439;-80
2022/03/29 12:53:57;;;;;;;24.48;11.32;;;;;;;;;;5064813;28;20421;-79
2022/03/29 12:56:27;;;;;;;20.00;10.90;;;;;;;;;;5063929;28;20421;-80
2022/03/29 12:58:54;;;;;;;19.48;9.60;;;;;;;;;;5061696;28;20419;-79
2022/03/29 13:01:25;;;;;;;20.77;9.88;;;;;;;;;;5064159;28;20416;-80
2022/03/29 13:03:51;;;;;;;20.45;10.65;;;;;;;;;;5063665;28;20427;-79
2022/03/29 13:06:17;;;;;;;21.60;10.00;;;;;;;;;;5063290;28;20431;-80
2022/03/29 13:08:43;;;;;;;20.75;9.00;;;;;;;;;;5063414;28;20416;-80
2022/03/29 13:11:18;;;;;;;19.50;9.80;;;;;;;;;;5064824;28;20434;-80
2022/03/29 13:13:44;;;;;;;26.03;10.87;;;;;;;;;;5064271;28;20415;-78
2022/03/29 13:16:19;;;;;;;20.73;11.52;;;;;;;;;;5063938;28;20431;-79
2022/03/29 13:18:49;;;;;;;19.90;10.55;;;;;;;;;;5060249;28;20498;-79
2022/03/29 13:21:16;;;;;;;24.85;10.55;;;;;;;;;;5063037;28;20833;-80
2022/03/29 13:23:44;;;;;;;19.27;10.00;;;;;;;;;;5062762;28;20438;-79
2022/03/29 13:26:11;;;;;;;17.77;9.35;;;;;;;;;;5063436;28;20411;-80
2022/03/29 13:28:40;;;;;;;19.63;9.10;;;;;;;;;;5060971;28;21018;-80
2022/03/29 13:31:07;;;;;;;23.45;9.77;;;;;;;;;;5061586;28;20429;-79
2022/03/29 13:33:33;;;;;;;20.13;10.03;;;;;;;;;;5061327;28;20423;-79
2022/03/29 13:36:05;;;;;;;21.92;9.70;;;;;;;;;;5062074;28;20431;-80
2022/03/29 13:38:32;;;;;;;19.10;10.20;;;;;;;;;;5062446;28;20449;-80
2022/03/29 13:40:59;;;;;;;18.45;9.20;;;;;;;;;;5062933;28;20783;-80
2022/03/29 13:43:25;;;;;;;18.33;8.68;;;;;;;;;;5060151;28;20419;-79
2022/03/29 13:45:53;;;;;;;16.30;9.50;;;;;;;;;;5064137;28;20416;-80
2022/03/29 13:48:19;;;;;;;16.08;8.60;;;;;;;;;;5060715;28;20435;-80
2022/03/29 13:50:45;;;;;;;16.38;7.85;;;;;;;;;;5065475;28;20510;-78
2022/03/29 13:53:13;;;;;;;16.40;7.50;;;;;;;;;;5064330;28;20417;-80
2022/03/29 13:55:40;;;;;;;11.57;6.73;;;;;;;;;;5066453;28;20459;-80
2022/03/29 13:58:07;;;;;;;16.55;7.07;;;;;;;;;;5064904;28;20416;-80
2022/03/29 14:00:33;;;;;;;16.67;7.30;;;;;;;;;;5062662;28;20439;-79
2022/03/29 14:03:01;;;;;;;21.52;7.75;;;;;;;;;;5065791;28;20421;-79
2022/03/29 14:05:28;;;;;;;17.30;7.18;;;;;;;;;;5066953;28;20428;-79
2022/03/29 14:07:54;;;;;;;18.20;7.18;;;;;;;;;;5066608;28;20417;-80
2022/03/29 14:10:21;;;;;;;15.43;7.07;;;;;;;;;;5066681;28;20427;-79
2022/03/29 14:12:47;;;;;;;15.30;6.60;;;;;;;;;;5066844;28;20560;-78
2022/03/29 14:15:14;;;;;;;13.40;6.90;;;;;;;;;;5064895;28;20992;-80
2022/03/29 14:17:40;;;;;;;19.37;6.70;;;;;;;;;;5066352;28;20418;-79
2022/03/29 14:20:08;;;;;;;11.93;5.72;;;;;;;;;;5064243;28;20444;-80
2022/03/29 14:22:35;;;;;;;12.85;6.57;;;;;;;;;;5064333;28;20422;-79
2022/03/29 14:25:01;;;;;;;12.90;6.00;;;;;;;;;;5061221;28;20429;-80
2022/03/29 14:27:28;;;;;;;15.15;7.28;;;;;;;;;;5062018;28;20464;-79
2022/03/29 14:29:54;;;;;;;18.83;7.55;;;;;;;;;;5060747;28;20429;-80
2022/03/29 14:32:21;;;;;;;14.02;7.43;;;;;;;;;;5064159;28;20436;-80
2022/03/29 14:34:48;;;;;;;19.45;7.30;;;;;;;;;;5064544;28;20529;-79
2022/03/29 14:37:16;;;;;;;10.98;6.55;;;;;;;;;;5065444;28;20421;-79